createdAt,value
2023-04-03T00:01:23.961Z,6.22
2023-04-03T00:03:53.730Z,6.22
2023-04-03T00:06:22.111Z,6.25
2023-04-03T00:08:50.722Z,6.24
2023-04-03T00:11:20.130Z,6.26
2023-04-03T00:13:48.490Z,6.24
2023-04-03T00:16:16.987Z,6.23
2023-04-03T00:18:45.432Z,6.22
2023-04-03T00:21:16.585Z,6.23
2023-04-03T00:23:45.168Z,6.25
2023-04-03T00:26:14.085Z,6.27
2023-04-03T00:28:42.587Z,6.28
2023-04-03T00:31:11.148Z,6.27
2023-04-03T00:33:39.530Z,6.26
2023-04-03T00:36:10.152Z,6.26
2023-04-03T00:38:40.573Z,6.24
2023-04-03T00:41:09.506Z,6.24
2023-04-03T00:43:38.399Z,6.26
2023-04-03T00:46:06.875Z,6.23
2023-04-03T00:48:38.209Z,6.23
2023-04-03T00:51:11.764Z,6.24
2023-04-03T00:53:45.647Z,6.26
2023-04-03T00:56:18.132Z,6.23
2023-04-03T00:58:51.357Z,6.19
2023-04-03T01:01:24.696Z,6.20
2023-04-03T01:03:53.492Z,6.20
2023-04-03T01:06:25.187Z,6.19
2023-04-03T01:08:55.828Z,6.15
2023-04-03T01:11:24.494Z,6.14
2023-04-03T01:13:52.934Z,6.14
2023-04-03T01:16:21.813Z,6.10
2023-04-03T01:18:50.530Z,6.08
2023-04-03T01:21:54.733Z,6.02
2023-04-03T01:24:37.300Z,5.98
2023-04-03T01:27:07.986Z,5.99
2023-04-03T01:29:36.589Z,5.99
2023-04-03T01:32:06.707Z,5.99
2023-04-03T01:34:35.211Z,5.93
2023-04-03T01:37:03.552Z,5.92
2023-04-03T01:39:31.874Z,5.94
2023-04-03T01:42:01.233Z,5.94
2023-04-03T01:44:30.395Z,5.90
2023-04-03T01:46:58.808Z,5.85
2023-04-03T01:49:28.504Z,5.82
2023-04-03T01:51:56.819Z,5.81
2023-04-03T01:54:25.196Z,5.85
2023-04-03T01:56:53.710Z,5.86
2023-04-03T01:59:22.077Z,5.89
2023-04-03T02:01:50.456Z,5.89
2023-04-03T02:04:18.966Z,5.87
2023-04-03T02:06:49.649Z,5.88
2023-04-03T02:09:28.467Z,5.87
2023-04-03T02:11:56.841Z,5.87
2023-04-03T02:14:25.509Z,5.88
2023-04-03T02:16:54.124Z,5.87
2023-04-03T02:19:22.782Z,5.86
2023-04-03T02:21:52.558Z,5.85
2023-04-03T02:24:21.157Z,5.83
2023-04-03T02:26:50.732Z,5.82
2023-04-03T02:29:19.168Z,5.80
2023-04-03T02:31:49.927Z,5.80
2023-04-03T02:34:18.534Z,5.81
2023-04-03T02:36:46.983Z,5.81
2023-04-03T02:39:16.938Z,5.78
2023-04-03T02:41:45.563Z,5.73
2023-04-03T02:44:14.770Z,5.76
2023-04-03T02:46:43.148Z,5.76
2023-04-03T02:49:11.556Z,5.75
2023-04-03T02:51:39.922Z,5.75
2023-04-03T02:54:08.465Z,5.76
2023-04-03T02:56:38.197Z,5.64
2023-04-03T02:59:07.157Z,5.58
2023-04-03T03:01:36.823Z,5.58
2023-04-03T03:04:05.383Z,5.59
2023-04-03T03:06:33.775Z,5.62
2023-04-03T03:09:02.837Z,5.59
2023-04-03T03:11:31.638Z,5.60
2023-04-03T03:14:01.348Z,5.61
2023-04-03T03:16:29.740Z,5.60
2023-04-03T03:18:59.055Z,5.57
2023-04-03T03:21:29.813Z,5.59
2023-04-03T03:23:58.199Z,5.59
2023-04-03T03:26:26.551Z,5.49
2023-04-03T03:28:54.953Z,5.48
2023-04-03T03:31:25.121Z,5.41
2023-04-03T03:33:53.477Z,5.35
2023-04-03T03:36:21.896Z,5.39
2023-04-03T03:38:51.219Z,5.29
2023-04-03T03:41:19.597Z,5.30
2023-04-03T03:43:51.005Z,5.31
2023-04-03T03:46:19.401Z,5.37
2023-04-03T03:48:50.542Z,5.42
2023-04-03T03:51:18.877Z,5.52
2023-04-03T03:53:47.312Z,5.57
2023-04-03T03:56:15.718Z,5.62
2023-04-03T03:58:44.194Z,5.64
2023-04-03T04:01:12.464Z,5.68
2023-04-03T04:03:41.056Z,5.69
2023-04-03T04:06:10.902Z,5.72
2023-04-03T04:08:39.268Z,5.73
2023-04-03T04:11:07.876Z,5.73
2023-04-03T04:13:36.756Z,5.75
2023-04-03T04:16:05.458Z,5.75
2023-04-03T04:18:33.849Z,5.74
2023-04-03T04:21:02.218Z,5.75
2023-04-03T04:23:31.960Z,5.73
2023-04-03T04:26:00.391Z,5.71
2023-04-03T04:28:28.704Z,5.69
2023-04-03T04:30:57.134Z,5.68
2023-04-03T04:33:25.727Z,5.66
2023-04-03T04:35:54.206Z,5.62
2023-04-03T04:38:33.430Z,5.53
2023-04-03T04:41:01.862Z,5.50
2023-04-03T04:43:30.277Z,5.57
2023-04-03T04:46:06.682Z,5.61
2023-04-03T04:48:35.747Z,5.64
2023-04-03T04:51:04.444Z,5.67
2023-04-03T04:53:34.745Z,5.68
2023-04-03T04:56:03.205Z,5.67
2023-04-03T04:58:31.581Z,5.69
2023-04-03T05:01:03.123Z,5.70
2023-04-03T05:03:31.683Z,5.72
2023-04-03T05:06:00.583Z,5.73
2023-04-03T05:08:28.996Z,5.76
2023-04-03T05:10:58.846Z,5.72
2023-04-03T05:13:27.390Z,5.68
2023-04-03T05:15:55.774Z,5.68
2023-04-03T05:18:24.158Z,5.67
2023-04-03T05:20:52.685Z,5.69
2023-04-03T05:23:21.175Z,5.71
2023-04-03T05:25:50.164Z,5.72
2023-04-03T05:28:19.852Z,5.74
2023-04-03T05:30:55.423Z,5.75
2023-04-03T05:33:23.877Z,5.80
2023-04-03T05:35:53.568Z,5.79
2023-04-03T05:38:22.467Z,5.80
2023-04-03T05:40:52.072Z,5.79
2023-04-03T05:43:21.835Z,5.78
2023-04-03T05:45:50.718Z,5.75
2023-04-03T05:48:19.403Z,5.71
2023-04-03T05:50:48.364Z,5.69
2023-04-03T05:53:21.100Z,5.68
2023-04-03T05:55:50.228Z,5.71
2023-04-03T05:58:18.687Z,5.71
2023-04-03T06:00:48.575Z,5.72
2023-04-03T06:03:27.748Z,5.77
2023-04-03T06:05:56.352Z,5.78
2023-04-03T06:08:25.764Z,5.75
2023-04-03T06:10:54.407Z,5.73
2023-04-03T06:13:23.060Z,5.76
2023-04-03T06:15:54.489Z,5.75
2023-04-03T06:18:22.923Z,5.75
2023-04-03T06:20:55.107Z,5.77
2023-04-03T06:23:23.497Z,5.77
2023-04-03T06:25:53.317Z,5.73
2023-04-03T06:28:23.792Z,5.72
2023-04-03T06:30:56.301Z,5.75
2023-04-03T06:33:24.782Z,5.70
2023-04-03T06:35:58.861Z,5.71
2023-04-03T06:38:27.351Z,5.72
2023-04-03T06:40:57.081Z,5.73
2023-04-03T06:43:25.695Z,5.76
2023-04-03T06:45:55.742Z,5.76
2023-04-03T06:48:24.202Z,5.82
2023-04-03T06:50:55.263Z,5.86
2023-04-03T06:53:23.790Z,5.89
2023-04-03T06:55:54.350Z,5.90
2023-04-03T06:58:23.368Z,5.92
2023-04-03T07:00:55.674Z,5.91
2023-04-03T07:03:24.828Z,5.94
2023-04-03T07:05:54.164Z,6.00
2023-04-03T07:08:24.218Z,6.06
2023-04-03T07:10:55.736Z,6.12
2023-04-03T07:13:24.147Z,6.19
2023-04-03T07:15:55.735Z,6.24
2023-04-03T07:18:24.506Z,6.29
2023-04-03T07:20:53.863Z,6.29
2023-04-03T07:23:22.248Z,6.29
2023-04-03T07:25:52.162Z,6.34
2023-04-03T07:28:23.560Z,6.37
2023-04-03T07:30:53.936Z,6.37
2023-04-03T07:33:24.924Z,6.45
2023-04-03T07:35:54.000Z,6.54
2023-04-03T07:38:22.677Z,6.59
2023-04-03T07:40:54.648Z,6.62
2023-04-03T07:43:25.743Z,6.60
2023-04-03T07:45:56.377Z,6.60
2023-04-03T07:48:28.432Z,6.63
2023-04-03T07:51:02.329Z,6.66
2023-04-03T07:53:31.056Z,6.68
2023-04-03T07:56:00.865Z,6.68
2023-04-03T07:58:29.348Z,6.69
2023-04-03T08:00:58.340Z,6.68
2023-04-03T08:03:28.328Z,6.70
2023-04-03T08:06:06.092Z,6.70
2023-04-03T08:08:36.658Z,6.70
2023-04-03T08:11:07.010Z,6.72
2023-04-03T08:13:36.689Z,6.74
2023-04-03T08:16:14.064Z,6.76
2023-04-03T08:18:44.080Z,6.79
2023-04-03T08:21:14.083Z,6.81
2023-04-03T08:23:43.453Z,6.78
2023-04-03T08:26:13.532Z,6.74
2023-04-03T08:28:42.543Z,6.75
2023-04-03T08:31:13.666Z,6.76
2023-04-03T08:33:43.534Z,6.73
2023-04-03T08:36:21.057Z,6.70
2023-04-03T08:38:49.979Z,6.70
2023-04-03T08:41:31.568Z,6.72
2023-04-03T08:44:26.806Z,6.76
2023-04-03T08:47:17.394Z,6.74
2023-04-03T08:49:54.770Z,6.71
2023-04-03T08:52:30.000Z,6.73
2023-04-03T08:55:01.892Z,6.77
2023-04-03T08:57:33.640Z,6.85
2023-04-03T09:00:05.735Z,6.93
2023-04-03T09:02:41.427Z,6.94
2023-04-03T09:05:16.290Z,6.95
2023-04-03T09:07:49.356Z,6.95
2023-04-03T09:10:24.669Z,6.95
2023-04-03T09:13:02.372Z,6.97
2023-04-03T09:15:39.391Z,7.01
2023-04-03T09:18:16.851Z,7.03
2023-04-03T09:20:51.647Z,7.06
2023-04-03T09:23:26.943Z,7.11
2023-04-03T09:26:05.978Z,7.17
2023-04-03T09:28:49.423Z,7.22
2023-04-03T09:31:23.697Z,7.28
2023-04-03T09:33:55.942Z,7.34
2023-04-03T09:36:45.690Z,7.39
2023-04-03T09:39:18.437Z,7.42
2023-04-03T09:41:59.754Z,7.39
2023-04-03T09:44:29.594Z,7.39
2023-04-03T09:46:58.223Z,7.44
2023-04-03T09:49:27.048Z,7.48
2023-04-03T09:51:58.632Z,7.48
2023-04-03T09:54:34.717Z,7.43
2023-04-03T09:57:08.316Z,7.36
2023-04-03T09:59:37.471Z,7.37
2023-04-03T10:02:33.930Z,7.41
2023-04-03T10:07:41.263Z,7.58
2023-04-03T10:10:21.512Z,7.62
2023-04-03T10:12:50.407Z,7.65
2023-04-03T10:15:21.341Z,7.66
2023-04-03T10:18:00.384Z,7.62
2023-04-03T10:20:38.440Z,7.59
2023-04-03T10:23:21.400Z,7.52
2023-04-03T10:26:03.458Z,7.45
2023-04-03T10:28:41.850Z,7.40
2023-04-03T10:31:19.084Z,7.38
2023-04-03T10:33:58.285Z,7.35
2023-04-03T10:36:38.275Z,7.34
2023-04-03T10:39:22.288Z,7.34
2023-04-03T10:42:17.014Z,7.40
2023-04-03T10:45:10.180Z,7.45
2023-04-03T10:47:48.183Z,7.51
2023-04-03T10:50:33.915Z,7.58
2023-04-03T10:53:08.826Z,7.71
2023-04-03T10:55:45.301Z,7.80
2023-04-03T10:58:23.952Z,7.89
2023-04-03T11:00:56.181Z,8.01
2023-04-03T11:03:33.270Z,8.06
2023-04-03T11:06:04.076Z,8.13
2023-04-03T11:08:43.566Z,8.15
2023-04-03T11:11:18.273Z,8.20
2023-04-03T11:13:55.599Z,8.21
2023-04-03T11:16:27.429Z,8.18
2023-04-03T11:19:01.800Z,8.10
2023-04-03T11:21:35.788Z,8.02
2023-04-03T11:24:08.620Z,8.00
2023-04-03T11:26:43.351Z,7.97
2023-04-03T11:29:28.202Z,7.91
2023-04-03T11:32:23.175Z,7.91
2023-04-03T11:34:55.095Z,7.89
2023-04-03T11:37:30.865Z,7.85
2023-04-03T11:40:03.677Z,7.77
2023-04-03T11:42:38.766Z,7.70
2023-04-03T11:45:37.022Z,7.62
2023-04-03T11:48:23.494Z,7.53
2023-04-03T11:50:53.290Z,7.39
2023-04-03T11:53:31.700Z,7.33
2023-04-03T11:56:02.330Z,7.25
2023-04-03T11:58:34.232Z,7.21
2023-04-03T12:01:06.994Z,7.15
2023-04-03T12:04:05.155Z,7.14
2023-04-03T12:07:15.822Z,7.14
2023-04-03T12:10:30.966Z,7.20
2023-04-03T12:13:05.068Z,7.23
2023-04-03T12:16:01.020Z,7.23
2023-04-03T12:19:01.165Z,7.22
2023-04-03T12:22:12.806Z,7.18
2023-04-03T12:24:43.219Z,7.17
2023-04-03T12:27:22.328Z,7.18
2023-04-03T12:29:58.147Z,7.20
2023-04-03T12:32:43.631Z,7.22
2023-04-03T12:35:21.443Z,7.21
2023-04-03T12:38:31.088Z,7.18
2023-04-03T12:41:06.486Z,7.18
2023-04-03T12:43:47.809Z,7.12
2023-04-03T12:46:19.326Z,7.10
2023-04-03T12:48:56.166Z,7.09
2023-04-03T12:51:33.990Z,7.08
2023-04-03T12:54:05.514Z,7.07
2023-04-03T12:56:35.204Z,7.05
2023-04-03T12:59:17.242Z,6.97
2023-04-03T13:01:46.565Z,6.97
2023-04-03T13:04:17.128Z,7.02
2023-04-03T13:06:46.274Z,7.08
2023-04-03T13:09:23.896Z,7.15
2023-04-03T13:11:56.501Z,7.13
2023-04-03T13:14:34.453Z,7.14
2023-04-03T13:17:08.821Z,7.18
2023-04-03T13:19:38.761Z,7.20
2023-04-03T13:22:10.125Z,7.24
2023-04-03T13:24:41.018Z,7.28
2023-04-03T13:27:12.142Z,7.31
2023-04-03T13:29:41.506Z,7.37
2023-04-03T13:32:19.868Z,7.42
2023-04-03T13:34:50.429Z,7.45
2023-04-03T13:37:24.074Z,7.50
2023-04-03T13:40:11.999Z,7.52
2023-04-03T13:42:43.733Z,7.54
2023-04-03T13:45:20.911Z,7.46
2023-04-03T13:47:50.938Z,7.45
2023-04-03T13:50:23.614Z,7.44
2023-04-03T13:52:54.944Z,7.40
2023-04-03T13:55:26.962Z,7.37
2023-04-03T13:57:59.052Z,7.26
2023-04-03T14:00:36.187Z,7.19
2023-04-03T14:03:04.878Z,7.09
2023-04-03T14:05:34.628Z,6.98
2023-04-03T14:08:03.163Z,6.94
2023-04-03T14:10:32.528Z,6.83
2023-04-03T14:13:01.152Z,6.75
2023-04-03T14:15:32.262Z,6.64
2023-04-03T14:18:02.581Z,6.57
2023-04-03T14:20:32.641Z,6.49
2023-04-03T14:23:02.552Z,6.46
2023-04-03T14:25:31.683Z,6.41
2023-04-03T14:28:01.152Z,6.42
2023-04-03T14:30:32.073Z,6.45
2023-04-03T14:33:01.209Z,6.49
2023-04-03T14:35:30.243Z,6.52
2023-04-03T14:37:58.931Z,6.57
2023-04-03T14:40:29.511Z,6.60
2023-04-03T14:42:59.324Z,6.67
2023-04-03T14:45:27.708Z,6.71
2023-04-03T14:47:59.029Z,6.76
2023-04-03T14:50:28.919Z,6.78
2023-04-03T14:52:59.996Z,6.77
2023-04-03T14:55:30.077Z,6.73
2023-04-03T14:57:59.068Z,6.72
2023-04-03T15:00:27.471Z,6.65
2023-04-03T15:02:56.054Z,6.59
2023-04-03T15:05:24.608Z,6.54
2023-04-03T15:08:02.490Z,6.47
2023-04-03T15:10:33.976Z,6.37
2023-04-03T15:13:02.438Z,6.24
2023-04-03T15:15:32.040Z,6.17
2023-04-03T15:18:01.243Z,6.13
2023-04-03T15:20:31.645Z,6.07
2023-04-03T15:23:01.740Z,6.10
2023-04-03T15:25:30.588Z,6.22
2023-04-03T15:28:01.014Z,6.23
2023-04-03T15:30:29.514Z,6.25
2023-04-03T15:32:58.910Z,6.40
2023-04-03T15:35:27.340Z,6.60
2023-04-03T15:37:55.809Z,6.72
2023-04-03T15:40:24.447Z,6.82
2023-04-03T15:42:54.382Z,6.94
2023-04-03T15:45:24.624Z,7.08
2023-04-03T15:47:53.385Z,7.15
2023-04-03T15:50:23.819Z,7.12
2023-04-03T15:52:55.272Z,7.17
2023-04-03T15:55:24.573Z,7.26
2023-04-03T15:57:53.953Z,7.34
2023-04-03T16:00:24.383Z,7.41
2023-04-03T16:02:55.290Z,7.41
2023-04-03T16:05:23.823Z,7.43
2023-04-03T16:07:52.631Z,7.46
2023-04-03T16:10:21.386Z,7.47
2023-04-03T16:12:49.894Z,7.54
2023-04-03T16:15:18.382Z,7.59
2023-04-03T16:17:49.093Z,7.62
2023-04-03T16:20:19.692Z,7.65
2023-04-03T16:22:48.243Z,7.58
2023-04-03T16:25:16.631Z,7.45
2023-04-03T16:27:45.146Z,7.46
2023-04-03T16:30:14.155Z,7.49
2023-04-03T16:32:44.153Z,7.50
2023-04-03T16:35:14.071Z,7.44
2023-04-03T16:37:45.979Z,7.41
2023-04-03T16:40:14.884Z,7.38
2023-04-03T16:42:43.378Z,7.36
2023-04-03T16:45:12.457Z,7.34
2023-04-03T16:47:40.979Z,7.32
2023-04-03T16:50:10.426Z,7.26
2023-04-03T16:52:40.867Z,7.24
2023-04-03T16:55:10.203Z,7.18
2023-04-03T16:57:38.601Z,7.13
2023-04-03T17:00:08.526Z,7.10
2023-04-03T17:02:41.868Z,7.09
2023-04-03T17:05:10.668Z,7.06
2023-04-03T17:07:40.500Z,7.03
2023-04-03T17:10:10.477Z,7.00
2023-04-03T17:12:38.920Z,6.96
2023-04-03T17:15:08.490Z,6.95
2023-04-03T17:17:37.565Z,6.94
2023-04-03T17:20:07.314Z,6.91
2023-04-03T17:22:36.083Z,6.89
2023-04-03T17:25:06.789Z,6.82
2023-04-03T17:27:35.277Z,6.77
2023-04-03T17:30:03.844Z,6.76
2023-04-03T17:32:32.417Z,6.74
2023-04-03T17:35:01.916Z,6.72
2023-04-03T17:37:30.424Z,6.73
2023-04-03T17:39:59.145Z,6.72
2023-04-03T17:42:31.391Z,6.73
2023-04-03T17:45:03.220Z,6.73
2023-04-03T17:47:31.736Z,6.69
2023-04-03T17:50:01.761Z,6.65
2023-04-03T17:52:31.923Z,6.65
2023-04-03T17:55:01.852Z,6.61
2023-04-03T17:57:32.284Z,6.61
2023-04-03T18:00:02.209Z,6.61
2023-04-03T18:02:32.259Z,6.59
2023-04-03T18:05:01.811Z,6.56
2023-04-03T18:07:30.363Z,6.53
2023-04-03T18:10:05.064Z,6.54
2023-04-03T18:12:36.699Z,6.54
2023-04-03T18:15:06.520Z,6.55
2023-04-03T18:17:35.094Z,6.54
2023-04-03T18:20:03.537Z,6.55
2023-04-03T18:22:42.732Z,6.54
2023-04-03T18:25:14.192Z,6.48
2023-04-03T18:27:45.031Z,6.36
2023-04-03T18:30:17.864Z,6.25
2023-04-03T18:32:46.270Z,6.19
2023-04-03T18:35:19.594Z,6.12
2023-04-03T18:37:48.062Z,6.08
2023-04-03T18:40:17.003Z,6.02
2023-04-03T18:42:46.896Z,5.98
2023-04-03T18:45:18.977Z,5.94
2023-04-03T18:47:47.465Z,5.91
2023-04-03T18:50:16.510Z,5.88
2023-04-03T18:52:54.884Z,5.86
2023-04-03T18:55:23.297Z,5.83
2023-04-03T18:57:53.345Z,5.80
2023-04-03T19:00:22.045Z,5.75
2023-04-03T19:02:50.778Z,5.71
2023-04-03T19:05:19.804Z,5.69
2023-04-03T19:07:49.463Z,5.68
2023-04-03T19:10:19.994Z,5.63
2023-04-03T19:12:50.185Z,5.61
2023-04-03T19:15:22.193Z,5.57
2023-04-03T19:17:56.891Z,5.57
2023-04-03T19:20:25.553Z,5.55
2023-04-03T19:22:55.191Z,5.51
2023-04-03T19:25:23.755Z,5.50
2023-04-03T19:27:52.222Z,5.50
2023-04-03T19:30:22.239Z,5.51
2023-04-03T19:32:51.707Z,5.47
2023-04-03T19:35:20.294Z,5.42
2023-04-03T19:37:51.076Z,5.38
2023-04-03T19:40:19.635Z,5.36
2023-04-03T19:42:48.201Z,5.28
2023-04-03T19:45:18.165Z,5.23
2023-04-03T19:47:48.245Z,5.20
2023-04-03T19:50:16.735Z,5.18
2023-04-03T19:52:45.899Z,5.15
2023-04-03T19:55:14.830Z,5.11
2023-04-03T19:57:43.282Z,5.08
2023-04-03T20:00:13.739Z,5.03
2023-04-03T20:02:42.195Z,5.00
2023-04-03T20:05:12.622Z,4.98
2023-04-03T20:07:41.678Z,4.98
2023-04-03T20:10:12.042Z,4.99
2023-04-03T20:12:40.472Z,4.99
2023-04-03T20:15:10.513Z,4.99
2023-04-03T20:17:39.716Z,4.96
2023-04-03T20:20:09.654Z,4.96
2023-04-03T20:22:40.872Z,4.94
2023-04-03T20:25:12.285Z,4.90
2023-04-03T20:27:43.525Z,4.87
2023-04-03T20:30:13.867Z,4.84
2023-04-03T20:32:42.754Z,4.83
2023-04-03T20:35:11.743Z,4.81
2023-04-03T20:37:44.311Z,4.78
2023-04-03T20:40:13.428Z,4.73
2023-04-03T20:42:43.066Z,4.73
2023-04-03T20:45:13.386Z,4.72
2023-04-03T20:47:41.856Z,4.64
2023-04-03T20:50:11.462Z,4.59
2023-04-03T20:52:40.697Z,4.57
2023-04-03T20:55:10.964Z,4.49
2023-04-03T20:57:39.414Z,4.49
2023-04-03T21:00:09.598Z,4.49
2023-04-03T21:02:38.020Z,4.48
2023-04-03T21:05:10.270Z,4.43
2023-04-03T21:08:16.895Z,4.41
2023-04-03T21:11:23.788Z,4.38
2023-04-03T21:14:30.797Z,4.27
2023-04-03T21:16:59.149Z,4.19
2023-04-03T21:19:30.082Z,4.15
2023-04-03T21:22:03.325Z,4.15
2023-04-03T21:24:32.043Z,4.09
2023-04-03T21:27:00.790Z,4.03
2023-04-03T21:29:30.394Z,3.96
2023-04-03T21:32:03.585Z,3.99
2023-04-03T21:34:33.422Z,4.00
2023-04-03T21:37:06.504Z,3.97
2023-04-03T21:39:35.300Z,3.97
2023-04-03T21:42:04.915Z,3.96
2023-04-03T21:44:33.456Z,3.95
2023-04-03T21:47:03.415Z,3.94
2023-04-03T21:49:33.128Z,3.93
2023-04-03T21:52:02.070Z,3.88
2023-04-03T21:54:30.366Z,3.86
2023-04-03T21:56:58.739Z,3.84
2023-04-03T21:59:27.287Z,3.83
2023-04-03T22:01:55.855Z,3.81
2023-04-03T22:04:24.581Z,3.80
2023-04-03T22:06:54.389Z,3.82
2023-04-03T22:09:22.769Z,3.84
2023-04-03T22:11:51.601Z,3.84
2023-04-03T22:14:20.335Z,3.85
2023-04-03T22:16:48.894Z,3.86
2023-04-03T22:19:17.417Z,3.88
2023-04-03T22:21:45.859Z,3.90
2023-04-03T22:24:18.126Z,3.92
2023-04-03T22:26:46.625Z,3.90
2023-04-03T22:29:14.969Z,3.90
2023-04-03T22:31:43.495Z,3.92
2023-04-03T22:34:12.057Z,3.90
2023-04-03T22:36:42.997Z,3.91
2023-04-03T22:39:12.363Z,3.92
2023-04-03T22:41:45.270Z,3.93
2023-04-03T22:44:13.912Z,3.93
2023-04-03T22:46:42.385Z,3.93
2023-04-03T22:49:11.110Z,3.96
2023-04-03T22:51:39.598Z,3.93
2023-04-03T22:54:08.106Z,3.94
2023-04-03T22:56:36.481Z,3.94
2023-04-03T22:59:07.251Z,3.97
2023-04-03T23:01:36.690Z,3.97
2023-04-03T23:04:07.171Z,3.99
2023-04-03T23:06:35.905Z,4.01
2023-04-03T23:09:06.303Z,3.97
2023-04-03T23:11:34.661Z,3.94
2023-04-03T23:14:05.240Z,3.94
2023-04-03T23:16:35.188Z,3.95
2023-04-03T23:19:07.325Z,3.96
2023-04-03T23:21:35.954Z,3.97
2023-04-03T23:24:06.964Z,3.96
2023-04-03T23:26:35.481Z,3.92
2023-04-03T23:29:04.089Z,3.90
2023-04-03T23:31:33.855Z,3.91
2023-04-03T23:34:02.212Z,3.88
2023-04-03T23:36:30.693Z,3.86
2023-04-03T23:38:59.060Z,3.82
2023-04-03T23:41:27.606Z,3.80
2023-04-03T23:43:55.974Z,3.74
2023-04-03T23:46:24.526Z,3.71
2023-04-03T23:48:54.546Z,3.68
2023-04-03T23:51:23.007Z,3.66
2023-04-03T23:53:51.501Z,3.63
2023-04-03T23:56:19.908Z,3.64
2023-04-03T23:58:48.337Z,3.66
